createdAt,value
2018-04-22T00:00:58.696Z,81.89
2018-04-22T00:01:58.654Z,82.65
2018-04-22T00:02:58.615Z,82.75
2018-04-22T00:03:58.574Z,81.76
2018-04-22T00:04:58.525Z,83.42
2018-04-22T00:05:58.481Z,83.80
2018-04-22T00:06:58.437Z,84.09
2018-04-22T00:07:58.395Z,84.14
2018-04-22T00:08:58.349Z,83.28
2018-04-22T00:09:58.306Z,83.38
2018-04-22T00:10:58.262Z,83.38
2018-04-22T00:11:58.219Z,83.67
2018-04-22T00:12:58.176Z,83.47
2018-04-22T00:13:58.136Z,83.47
2018-04-22T00:14:58.092Z,83.67
2018-04-22T00:15:58.047Z,83.86
2018-04-22T00:16:58.007Z,83.28
2018-04-22T00:17:57.963Z,83.18
2018-04-22T00:18:57.918Z,83.09
2018-04-22T00:19:57.875Z,83.18
2018-04-22T00:20:57.835Z,83.38
2018-04-22T00:21:57.789Z,83.38
2018-04-22T00:22:57.743Z,83.09
2018-04-22T00:23:57.701Z,83.09
2018-04-22T00:24:57.658Z,82.81
2018-04-22T00:25:57.617Z,83.09
2018-04-22T00:26:57.566Z,83.09
2018-04-22T00:27:57.524Z,83.38
2018-04-22T00:28:57.483Z,84.14
2018-04-22T00:29:57.437Z,83.86
2018-04-22T00:30:57.392Z,84.43
2018-04-22T00:31:57.351Z,84.23
2018-04-22T00:32:57.305Z,84.52
2018-04-22T00:33:57.265Z,84.05
2018-04-22T00:34:57.218Z,84.62
2018-04-22T00:35:57.176Z,84.81
2018-04-22T00:36:57.131Z,85.25
2018-04-22T00:37:57.088Z,85.72
2018-04-22T00:38:57.041Z,85.44
2018-04-22T00:39:57.000Z,84.58
2018-04-22T00:40:56.955Z,84.86
2018-04-22T00:41:56.912Z,84.58
2018-04-22T00:42:56.867Z,84.77
2018-04-22T00:43:56.829Z,84.77
2018-04-22T00:44:56.780Z,84.86
2018-04-22T00:45:56.738Z,84.77
2018-04-22T00:46:56.693Z,84.86
2018-04-22T00:47:56.649Z,85.25
2018-04-22T00:48:56.607Z,85.25
2018-04-22T00:49:56.563Z,85.05
2018-04-22T00:50:56.522Z,85.25
2018-04-22T00:51:56.475Z,85.72
2018-04-22T00:52:56.431Z,86.01
2018-04-22T00:53:56.389Z,85.91
2018-04-22T00:54:56.345Z,85.82
2018-04-22T00:55:56.298Z,86.49
2018-04-22T00:56:56.255Z,86.49
2018-04-22T00:57:56.212Z,86.30
2018-04-22T00:58:56.167Z,86.58
2018-04-22T00:59:56.124Z,86.96
2018-04-22T01:00:56.079Z,86.77
2018-04-22T01:01:56.042Z,87.06
2018-04-22T01:02:55.993Z,87.15
2018-04-22T01:03:55.947Z,87.54
2018-04-22T01:04:55.903Z,87.63
2018-04-22T01:05:55.862Z,86.20
2018-04-22T01:06:55.816Z,86.01
2018-04-22T01:07:55.772Z,85.91
2018-04-22T01:08:55.730Z,85.82
2018-04-22T01:09:55.686Z,86.20
2018-04-22T01:10:55.639Z,86.49
2018-04-22T01:11:55.599Z,86.49
2018-04-22T01:12:55.555Z,86.49
2018-04-22T01:13:55.510Z,86.20
2018-04-22T01:14:55.466Z,87.15
2018-04-22T01:15:55.421Z,87.35
2018-04-22T01:16:55.378Z,86.96
2018-04-22T01:17:55.334Z,86.39
2018-04-22T01:18:55.289Z,86.68
2018-04-22T01:19:55.247Z,86.58
2018-04-22T01:20:55.201Z,87.25
2018-04-22T01:21:55.161Z,87.54
2018-04-22T01:22:55.112Z,87.54
2018-04-22T01:23:55.070Z,87.63
2018-04-22T01:24:55.030Z,87.35
2018-04-22T01:25:54.984Z,87.73
2018-04-22T01:26:54.940Z,88.30
2018-04-22T01:27:54.897Z,87.63
2018-04-22T01:28:54.853Z,87.82
2018-04-22T01:29:54.808Z,88.30
2018-04-22T01:30:54.774Z,87.44
2018-04-22T01:31:54.758Z,87.63
2018-04-22T01:32:54.676Z,88.40
2018-04-22T01:33:54.633Z,87.73
2018-04-22T01:34:54.588Z,87.73
2018-04-22T01:35:54.544Z,87.06
2018-04-22T01:36:54.499Z,87.73
2018-04-22T01:37:54.457Z,87.54
2018-04-22T01:38:54.411Z,87.44
2018-04-22T01:39:54.371Z,87.68
2018-04-22T01:40:54.320Z,87.68
2018-04-22T01:41:54.280Z,87.59
2018-04-22T01:42:54.235Z,87.49
2018-04-22T01:43:54.193Z,87.87
2018-04-22T01:44:54.148Z,87.59
2018-04-22T01:45:54.103Z,88.54
2018-04-22T01:46:54.060Z,88.35
2018-04-22T01:47:54.016Z,88.30
2018-04-22T01:48:53.970Z,88.26
2018-04-22T01:49:53.928Z,88.26
2018-04-22T01:50:53.890Z,88.11
2018-04-22T01:51:53.840Z,88.16
2018-04-22T01:52:54.540Z,88.11
2018-04-22T01:53:53.750Z,88.35
2018-04-22T01:54:53.706Z,88.45
2018-04-22T01:55:54.537Z,89.21
2018-04-22T01:56:53.618Z,88.83
2018-04-22T01:57:53.572Z,89.40
2018-04-22T01:58:53.527Z,89.88
2018-04-22T01:59:53.489Z,89.50
2018-04-22T02:00:53.437Z,89.59
2018-04-22T02:01:53.396Z,89.69
2018-04-22T02:02:53.351Z,89.78
2018-04-22T02:03:53.307Z,89.78
2018-04-22T02:04:53.267Z,89.31
2018-04-22T02:05:53.218Z,89.78
2018-04-22T02:06:53.171Z,90.07
2018-04-22T02:07:54.039Z,90.36
2018-04-22T02:08:53.087Z,90.36
2018-04-22T02:09:53.040Z,90.17
2018-04-22T02:10:53.537Z,90.73
2018-04-22T02:11:52.952Z,90.45
2018-04-22T02:12:52.908Z,90.64
2018-04-22T02:13:52.865Z,90.93
2018-04-22T02:14:52.817Z,90.73
2018-04-22T02:15:54.040Z,90.45
2018-04-22T02:16:53.541Z,90.45
2018-04-22T02:17:53.539Z,89.88
2018-04-22T02:18:52.641Z,90.36
2018-04-22T02:19:52.620Z,89.64
2018-04-22T02:20:53.039Z,89.64
2018-04-22T02:21:52.511Z,89.64
2018-04-22T02:22:53.040Z,90.26
2018-04-22T02:23:52.421Z,90.50
2018-04-22T02:24:52.375Z,90.41
2018-04-22T02:25:52.332Z,90.41
2018-04-22T02:26:52.285Z,90.93
2018-04-22T02:27:52.241Z,90.69
2018-04-22T02:28:52.198Z,90.69
2018-04-22T02:29:52.152Z,90.88
2018-04-22T02:30:52.108Z,91.07
2018-04-22T02:31:52.068Z,91.55
2018-04-22T02:32:52.018Z,91.17
2018-04-22T02:33:51.978Z,91.46
2018-04-22T02:34:51.932Z,92.03
2018-04-22T02:35:51.886Z,91.55
2018-04-22T02:36:51.838Z,91.93
2018-04-22T02:37:51.796Z,91.64
2018-04-22T02:38:51.746Z,92.03
2018-04-22T02:39:51.704Z,91.74
2018-04-22T02:40:51.662Z,91.93
2018-04-22T02:41:51.616Z,92.03
2018-04-22T02:42:55.043Z,91.64
2018-04-22T02:43:51.530Z,91.74
2018-04-22T02:44:51.483Z,92.03
2018-04-22T02:45:52.047Z,91.36
2018-04-22T02:46:51.396Z,91.36
2018-04-22T02:47:51.351Z,91.93
2018-04-22T02:48:51.306Z,92.03
2018-04-22T02:49:51.264Z,91.74
2018-04-22T02:50:51.212Z,92.60
2018-04-22T02:51:51.172Z,92.41
2018-04-22T02:52:51.125Z,92.41
2018-04-22T02:53:52.046Z,92.41
2018-04-22T02:54:51.035Z,91.83
2018-04-22T02:55:50.999Z,91.93
2018-04-22T02:56:50.945Z,92.03
2018-04-22T02:57:51.548Z,92.41
2018-04-22T02:58:50.858Z,92.32
2018-04-22T02:59:51.548Z,92.41
2018-04-22T03:00:51.547Z,92.12
2018-04-22T03:01:50.728Z,91.93
2018-04-22T03:02:50.681Z,91.93
2018-04-22T03:03:50.635Z,92.32
2018-04-22T03:04:50.590Z,92.41
2018-04-22T03:05:50.540Z,92.79
2018-04-22T03:06:51.050Z,92.79
2018-04-22T03:07:50.457Z,92.98
2018-04-22T03:08:51.049Z,93.36
2018-04-22T03:09:51.047Z,93.27
2018-04-22T03:10:50.326Z,94.03
2018-04-22T03:11:50.280Z,93.46
2018-04-22T03:12:50.230Z,92.88
2018-04-22T03:13:51.049Z,92.79
2018-04-22T03:14:50.142Z,92.79
2018-04-22T03:15:51.049Z,92.50
2018-04-22T03:16:50.054Z,92.98
2018-04-22T03:17:50.013Z,92.79
2018-04-22T03:18:49.964Z,93.03
2018-04-22T03:19:49.917Z,93.12
2018-04-22T03:20:50.550Z,93.41
2018-04-22T03:21:49.841Z,93.32
2018-04-22T03:22:49.782Z,93.88
2018-04-22T03:23:49.744Z,93.60
2018-04-22T03:24:49.695Z,93.70
2018-04-22T03:25:49.655Z,94.46
2018-04-22T03:26:49.605Z,94.27
2018-04-22T03:27:49.560Z,94.65
2018-04-22T03:28:49.517Z,94.08
2018-04-22T03:29:49.473Z,93.79
2018-04-22T03:30:49.424Z,93.79
2018-04-22T03:31:49.379Z,93.41
2018-04-22T03:32:49.336Z,92.84
2018-04-22T03:33:49.291Z,93.32
2018-04-22T03:34:50.054Z,93.22
2018-04-22T03:35:49.200Z,93.32
2018-04-22T03:36:49.159Z,93.41
2018-04-22T03:37:50.062Z,93.03
2018-04-22T03:38:49.064Z,93.41
2018-04-22T03:39:49.021Z,93.60
2018-04-22T03:40:48.977Z,93.70
2018-04-22T03:41:48.937Z,94.84
2018-04-22T03:42:48.888Z,94.93
2018-04-22T03:43:48.843Z,94.65
2018-04-22T03:44:48.887Z,94.27
2018-04-22T03:45:48.754Z,93.98
2018-04-22T03:46:48.711Z,94.56
2018-04-22T03:47:48.664Z,94.84
2018-04-22T03:48:48.618Z,95.61
2018-04-22T03:49:49.560Z,94.74
2018-04-22T03:50:48.528Z,95.22
2018-04-22T03:51:48.485Z,94.46
2018-04-22T03:52:48.438Z,94.65
2018-04-22T03:53:48.396Z,94.37
2018-04-22T03:54:48.348Z,93.70
2018-04-22T03:55:48.306Z,93.98
2018-04-22T03:56:49.060Z,94.17
2018-04-22T03:57:48.222Z,94.27
2018-04-22T03:58:48.175Z,93.88
2018-04-22T03:59:48.129Z,94.65
2018-04-22T04:00:48.075Z,94.37
2018-04-22T04:01:48.035Z,94.37
2018-04-22T04:02:47.989Z,94.08
2018-04-22T04:03:48.561Z,94.17
2018-04-22T04:04:47.897Z,93.98
2018-04-22T04:05:47.856Z,94.27
2018-04-22T04:06:47.810Z,94.27
2018-04-22T04:07:47.763Z,94.17
2018-04-22T04:08:47.722Z,94.84
2018-04-22T04:09:47.680Z,94.93
2018-04-22T04:10:47.628Z,95.22
2018-04-22T04:11:47.586Z,94.56
2018-04-22T04:12:47.544Z,94.27
2018-04-22T04:13:47.494Z,94.17
2018-04-22T04:14:47.448Z,93.79
2018-04-22T04:15:48.061Z,94.27
2018-04-22T04:16:47.360Z,94.37
2018-04-22T04:17:47.321Z,93.98
2018-04-22T04:18:47.270Z,93.60
2018-04-22T04:19:47.220Z,93.70
2018-04-22T04:20:47.178Z,94.27
2018-04-22T04:21:47.141Z,94.65
2018-04-22T04:22:47.089Z,94.27
2018-04-22T04:23:47.569Z,93.98
2018-04-22T04:24:47.008Z,94.93
2018-04-22T04:25:46.954Z,94.93
2018-04-22T04:26:46.907Z,94.84
2018-04-22T04:27:47.564Z,94.17
2018-04-22T04:28:46.823Z,94.08
2018-04-22T04:29:46.774Z,94.46
2018-04-22T04:30:46.773Z,94.65
2018-04-22T04:31:46.686Z,94.17
2018-04-22T04:32:47.572Z,94.17
2018-04-22T04:33:46.595Z,94.37
2018-04-22T04:34:46.546Z,93.79
2018-04-22T04:35:46.504Z,94.41
2018-04-22T04:36:46.457Z,94.17
2018-04-22T04:37:46.414Z,93.60
2018-04-22T04:38:46.370Z,94.03
2018-04-22T04:39:46.321Z,93.60
2018-04-22T04:40:46.276Z,93.65
2018-04-22T04:41:46.231Z,93.36
2018-04-22T04:42:46.189Z,93.08
2018-04-22T04:43:46.143Z,92.79
2018-04-22T04:44:46.101Z,92.98
2018-04-22T04:45:46.052Z,92.74
2018-04-22T04:46:46.571Z,92.55
2018-04-22T04:47:46.574Z,92.74
2018-04-22T04:48:46.575Z,92.88
2018-04-22T04:49:45.874Z,92.65
2018-04-22T04:50:45.827Z,92.60
2018-04-22T04:51:45.783Z,92.79
2018-04-22T04:52:45.739Z,93.46
2018-04-22T04:53:46.574Z,92.88
2018-04-22T04:54:47.072Z,92.79
2018-04-22T04:55:45.603Z,92.88
2018-04-22T04:56:45.559Z,93.46
2018-04-22T04:57:45.515Z,93.08
2018-04-22T04:58:46.071Z,92.79
2018-04-22T04:59:45.429Z,92.50
2018-04-22T05:00:45.380Z,91.93
2018-04-22T05:01:45.335Z,91.36
2018-04-22T05:02:45.287Z,91.93
2018-04-22T05:03:46.075Z,92.03
2018-04-22T05:04:45.200Z,92.69
2018-04-22T05:05:45.156Z,91.93
2018-04-22T05:06:45.112Z,91.83
2018-04-22T05:07:45.065Z,91.64
2018-04-22T05:08:45.028Z,91.55
2018-04-22T05:09:44.983Z,90.59
2018-04-22T05:10:44.930Z,91.55
2018-04-22T05:11:44.887Z,90.88
2018-04-22T05:12:44.843Z,89.78
2018-04-22T05:13:44.798Z,89.69
2018-04-22T05:14:44.751Z,89.69
2018-04-22T05:15:45.578Z,88.45
2018-04-22T05:16:45.575Z,88.07
2018-04-22T05:17:44.619Z,87.54
2018-04-22T05:18:44.604Z,87.35
2018-04-22T05:19:44.529Z,86.49
2018-04-22T05:20:45.077Z,86.39
2018-04-22T05:21:44.439Z,86.01
2018-04-22T05:22:44.396Z,84.91
2018-04-22T05:23:44.351Z,84.81
2018-04-22T05:24:44.310Z,83.57
2018-04-22T05:25:45.078Z,83.38
2018-04-22T05:26:45.079Z,83.09
2018-04-22T05:27:45.078Z,83.86
2018-04-22T05:28:44.131Z,83.38
2018-04-22T05:29:44.091Z,84.43
2018-04-22T05:30:44.044Z,84.23
2018-04-22T05:31:44.001Z,84.05
2018-04-22T05:32:43.962Z,84.33
2018-04-22T05:33:43.913Z,84.05
2018-04-22T05:34:43.870Z,83.86
2018-04-22T05:35:44.582Z,84.23
2018-04-22T05:36:43.785Z,84.05
2018-04-22T05:37:43.738Z,83.95
2018-04-22T05:38:43.694Z,83.57
2018-04-22T05:39:43.652Z,84.33
2018-04-22T05:40:43.606Z,84.05
2018-04-22T05:41:43.580Z,83.28
2018-04-22T05:42:43.563Z,83.18
2018-04-22T05:43:43.479Z,83.38
2018-04-22T05:44:43.432Z,83.00
2018-04-22T05:45:43.393Z,83.18
2018-04-22T05:46:43.347Z,83.00
2018-04-22T05:47:43.304Z,82.71
2018-04-22T05:48:43.262Z,82.46
2018-04-22T05:49:43.215Z,82.56
2018-04-22T05:50:43.170Z,81.95
2018-04-22T05:51:43.657Z,82.23
2018-04-22T05:52:43.084Z,82.61
2018-04-22T05:53:43.041Z,82.84
2018-04-22T05:54:42.996Z,82.46
2018-04-22T05:55:42.959Z,81.89
2018-04-22T05:56:42.916Z,81.70
2018-04-22T05:57:42.867Z,81.41
2018-04-22T05:58:42.827Z,81.36
2018-04-22T05:59:42.777Z,81.07
2018-04-22T06:00:42.736Z,81.16
2018-04-22T06:01:42.693Z,80.59
2018-04-22T06:02:42.660Z,80.79
2018-04-22T06:03:42.605Z,80.88
2018-04-22T06:04:42.563Z,80.79
2018-04-22T06:05:43.095Z,80.69
2018-04-22T06:06:42.477Z,80.69
2018-04-22T06:07:42.435Z,80.40
2018-04-22T06:08:42.392Z,80.02
2018-04-22T06:09:42.352Z,79.83
2018-04-22T06:10:42.304Z,79.25
2018-04-22T06:11:43.089Z,78.97
2018-04-22T06:12:42.217Z,79.06
2018-04-22T06:13:43.163Z,79.16
2018-04-22T06:14:42.130Z,78.63
2018-04-22T06:15:42.093Z,78.63
2018-04-22T06:16:42.592Z,78.05
2018-04-22T06:17:42.004Z,77.38
2018-04-22T06:18:41.959Z,77.48
2018-04-22T06:19:41.920Z,77.33
2018-04-22T06:20:42.590Z,76.65
2018-04-22T06:21:41.830Z,76.84
2018-04-22T06:22:42.600Z,76.18
2018-04-22T06:23:41.744Z,76.08
2018-04-22T06:24:41.710Z,75.51
2018-04-22T06:25:41.777Z,75.26
2018-04-22T06:26:42.172Z,74.77
2018-04-22T06:27:41.579Z,74.30
2018-04-22T06:28:41.530Z,74.20
2018-04-22T06:29:41.487Z,74.30
2018-04-22T06:30:41.444Z,74.30
2018-04-22T06:31:41.403Z,73.91
2018-04-22T06:32:42.092Z,73.76
2018-04-22T06:33:41.316Z,73.28
2018-04-22T06:34:41.274Z,72.80
2018-04-22T06:35:41.229Z,72.71
2018-04-22T06:36:41.238Z,71.84
2018-04-22T06:37:42.097Z,71.84
2018-04-22T06:38:41.665Z,71.78
2018-04-22T06:39:41.073Z,70.83
2018-04-22T06:40:41.019Z,70.64
2018-04-22T06:41:41.599Z,70.64
2018-04-22T06:42:41.600Z,70.64
2018-04-22T06:43:40.893Z,71.08
2018-04-22T06:44:41.597Z,71.94
2018-04-22T06:45:40.815Z,71.94
2018-04-22T06:46:41.602Z,72.13
2018-04-22T06:47:41.605Z,72.13
2018-04-22T06:48:40.683Z,72.80
2018-04-22T06:49:40.643Z,72.99
2018-04-22T06:50:40.597Z,72.80
2018-04-22T06:51:40.556Z,71.98
2018-04-22T06:52:41.107Z,71.11
2018-04-22T06:53:40.474Z,71.21
2018-04-22T06:54:40.432Z,70.76
2018-04-22T06:55:40.393Z,69.71
2018-04-22T06:56:40.353Z,69.07
2018-04-22T06:57:41.101Z,68.50
2018-04-22T06:58:40.264Z,67.83
2018-04-22T06:59:40.223Z,68.15
2018-04-22T07:00:40.182Z,67.44
2018-04-22T07:01:40.141Z,68.12
2018-04-22T07:02:40.102Z,67.92
2018-04-22T07:03:40.060Z,68.02
2018-04-22T07:04:40.017Z,68.15
2018-04-22T07:05:39.975Z,67.09
2018-04-22T07:06:39.934Z,67.76
2018-04-22T07:07:39.897Z,67.09
2018-04-22T07:08:39.852Z,66.52
2018-04-22T07:09:39.812Z,67.00
2018-04-22T07:10:39.770Z,67.44
2018-04-22T07:11:39.732Z,68.12
2018-04-22T07:12:39.683Z,67.92
2018-04-22T07:13:39.649Z,68.05
2018-04-22T07:14:39.604Z,68.05
2018-04-22T07:15:39.568Z,68.02
2018-04-22T07:16:39.542Z,68.79
2018-04-22T07:17:39.486Z,68.50
2018-04-22T07:18:39.444Z,68.02
2018-04-22T07:19:39.401Z,67.73
2018-04-22T07:20:39.360Z,67.47
2018-04-22T07:21:39.318Z,67.09
2018-04-22T07:22:40.109Z,66.42
2018-04-22T07:23:39.237Z,66.36
2018-04-22T07:24:39.196Z,65.05
2018-04-22T07:25:39.156Z,63.99
2018-04-22T07:26:39.114Z,63.73
2018-04-22T07:27:39.075Z,63.06
2018-04-22T07:28:39.608Z,62.77
2018-04-22T07:29:38.994Z,62.93
2018-04-22T07:30:39.679Z,63.12
2018-04-22T07:31:38.910Z,63.89
2018-04-22T07:32:38.871Z,64.37
2018-04-22T07:33:38.831Z,64.56
2018-04-22T07:34:40.615Z,63.99
2018-04-22T07:35:38.755Z,63.51
2018-04-22T07:36:38.707Z,63.79
2018-04-22T07:37:38.670Z,63.79
2018-04-22T07:38:38.626Z,64.47
2018-04-22T07:39:38.591Z,64.31
2018-04-22T07:40:38.559Z,63.15
2018-04-22T07:41:38.512Z,61.94
2018-04-22T07:42:38.464Z,61.46
2018-04-22T07:43:38.426Z,61.29
2018-04-22T07:44:38.385Z,61.36
2018-04-22T07:45:38.341Z,61.07
2018-04-22T07:46:38.308Z,61.46
2018-04-22T07:47:38.263Z,61.71
2018-04-22T07:48:38.224Z,62.19
2018-04-22T07:49:38.182Z,61.26
2018-04-22T07:50:38.142Z,61.26
2018-04-22T07:51:38.104Z,61.61
2018-04-22T07:52:38.060Z,61.65
2018-04-22T07:53:38.026Z,62.00
2018-04-22T07:54:37.984Z,62.87
2018-04-22T07:55:37.942Z,62.38
2018-04-22T07:56:38.620Z,62.10
2018-04-22T07:57:38.616Z,62.13
2018-04-22T07:58:37.821Z,61.36
2018-04-22T07:59:37.784Z,60.49
2018-04-22T08:00:37.742Z,60.30
2018-04-22T08:01:37.702Z,60.30
2018-04-22T08:02:37.668Z,59.44
2018-04-22T08:03:37.621Z,59.53
2018-04-22T08:04:38.121Z,59.24
2018-04-22T08:05:38.117Z,57.99
2018-04-22T08:06:37.501Z,57.32
2018-04-22T08:07:37.463Z,55.68
2018-04-22T08:08:38.121Z,55.90
2018-04-22T08:09:37.385Z,55.26
2018-04-22T08:10:37.344Z,54.58
2018-04-22T08:11:38.122Z,55.07
2018-04-22T08:12:37.263Z,56.22
2018-04-22T08:13:38.127Z,56.10
2018-04-22T08:14:37.183Z,55.81
2018-04-22T08:15:37.142Z,56.03
2018-04-22T08:16:37.108Z,56.41
2018-04-22T08:17:37.066Z,55.93
2018-04-22T08:18:37.023Z,56.32
2018-04-22T08:19:36.984Z,56.03
2018-04-22T08:20:36.946Z,55.96
2018-04-22T08:21:37.625Z,56.05
2018-04-22T08:22:36.868Z,56.22
2018-04-22T08:23:36.826Z,55.96
2018-04-22T08:24:36.788Z,56.03
2018-04-22T08:25:36.747Z,56.22
2018-04-22T08:26:36.707Z,55.65
2018-04-22T08:27:37.636Z,55.16
2018-04-22T08:28:36.629Z,55.19
2018-04-22T08:29:36.589Z,55.09
2018-04-22T08:30:37.131Z,55.48
2018-04-22T08:31:36.513Z,54.42
2018-04-22T08:32:36.471Z,55.00
2018-04-22T08:33:36.431Z,54.03
2018-04-22T08:34:36.392Z,53.84
2018-04-22T08:35:36.352Z,54.32
2018-04-22T08:36:37.142Z,54.42
2018-04-22T08:37:36.280Z,53.48
2018-04-22T08:38:36.233Z,53.00
2018-04-22T08:39:36.192Z,52.61
2018-04-22T08:40:36.153Z,52.23
2018-04-22T08:41:36.113Z,52.42
2018-04-22T08:42:36.635Z,52.23
2018-04-22T08:43:36.034Z,52.04
2018-04-22T08:44:35.995Z,52.61
2018-04-22T08:45:36.637Z,52.91
2018-04-22T08:46:35.914Z,52.61
2018-04-22T08:47:36.633Z,52.73
2018-04-22T08:48:36.636Z,51.20
2018-04-22T08:49:36.634Z,51.20
2018-04-22T08:50:35.784Z,52.16
2018-04-22T08:51:35.723Z,51.58
2018-04-22T08:52:35.681Z,50.81
2018-04-22T08:53:35.642Z,51.39
2018-04-22T08:54:35.598Z,51.29
2018-04-22T08:55:35.560Z,50.81
2018-04-22T08:56:35.524Z,51.20
2018-04-22T08:57:35.498Z,51.61
2018-04-22T08:58:35.450Z,51.51
2018-04-22T08:59:35.409Z,51.32
2018-04-22T09:00:35.365Z,51.03
2018-04-22T09:01:35.326Z,50.06
2018-04-22T09:02:35.286Z,50.16
2018-04-22T09:03:35.247Z,50.54
2018-04-22T09:04:35.208Z,50.74
2018-04-22T09:05:35.172Z,50.96
2018-04-22T09:06:35.129Z,50.18
2018-04-22T09:07:35.094Z,49.99
2018-04-22T09:08:35.047Z,49.70
2018-04-22T09:09:35.012Z,49.90
2018-04-22T09:10:34.971Z,50.11
2018-04-22T09:11:34.930Z,49.99
2018-04-22T09:12:34.893Z,50.21
2018-04-22T09:13:34.856Z,50.28
2018-04-22T09:14:35.640Z,49.63
2018-04-22T09:15:35.643Z,48.86
2018-04-22T09:16:34.737Z,49.05
2018-04-22T09:17:34.701Z,50.01
2018-04-22T09:18:34.658Z,49.32
2018-04-22T09:19:34.621Z,49.90
2018-04-22T09:20:34.583Z,49.90
2018-04-22T09:21:34.542Z,50.01
2018-04-22T09:22:34.502Z,49.07
2018-04-22T09:23:34.465Z,48.76
2018-04-22T09:24:35.143Z,49.05
2018-04-22T09:25:34.391Z,49.05
2018-04-22T09:26:34.349Z,48.49
2018-04-22T09:27:34.314Z,48.28
2018-04-22T09:28:34.277Z,48.18
2018-04-22T09:29:34.231Z,48.18
2018-04-22T09:30:34.192Z,47.22
2018-04-22T09:31:34.159Z,47.14
2018-04-22T09:32:34.122Z,45.81
2018-04-22T09:33:34.647Z,45.14
2018-04-22T09:34:34.039Z,45.21
2018-04-22T09:35:34.000Z,45.11
2018-04-22T09:36:33.964Z,45.21
2018-04-22T09:37:33.928Z,44.36
2018-04-22T09:38:33.886Z,43.98
2018-04-22T09:39:33.849Z,43.88
2018-04-22T09:40:33.815Z,44.46
2018-04-22T09:41:34.651Z,44.36
2018-04-22T09:42:33.735Z,44.56
2018-04-22T09:43:33.693Z,44.07
2018-04-22T09:44:33.662Z,43.98
2018-04-22T09:45:33.618Z,43.99
2018-04-22T09:46:34.159Z,43.99
2018-04-22T09:47:33.545Z,44.09
2018-04-22T09:48:33.503Z,43.54
2018-04-22T09:49:34.153Z,43.61
2018-04-22T09:50:33.429Z,43.90
2018-04-22T09:51:33.387Z,43.51
2018-04-22T09:52:33.351Z,42.74
2018-04-22T09:53:33.312Z,43.03
2018-04-22T09:54:33.284Z,43.41
2018-04-22T09:55:33.235Z,43.41
2018-04-22T09:56:33.201Z,43.13
2018-04-22T09:57:33.161Z,43.88
2018-04-22T09:58:33.122Z,43.41
2018-04-22T09:59:33.082Z,43.13
2018-04-22T10:00:33.046Z,43.51
2018-04-22T10:01:33.009Z,43.73
2018-04-22T10:02:32.970Z,42.96
2018-04-22T10:03:32.932Z,43.80
2018-04-22T10:04:33.659Z,42.86
2018-04-22T10:05:33.655Z,42.93
2018-04-22T10:06:32.817Z,43.03
2018-04-22T10:07:32.779Z,43.61
2018-04-22T10:08:32.744Z,43.71
2018-04-22T10:09:32.704Z,42.93
2018-04-22T10:10:32.667Z,43.24
2018-04-22T10:11:32.629Z,42.66
2018-04-22T10:12:32.591Z,41.99
2018-04-22T10:13:33.171Z,42.08
2018-04-22T10:14:32.515Z,41.42
2018-04-22T10:15:33.164Z,41.42
2018-04-22T10:16:32.481Z,42.10
2018-04-22T10:17:32.408Z,41.91
2018-04-22T10:18:32.363Z,42.78
2018-04-22T10:19:32.335Z,43.27
2018-04-22T10:20:32.288Z,43.15
2018-04-22T10:21:32.248Z,42.68
2018-04-22T10:22:32.211Z,42.88
2018-04-22T10:23:32.175Z,42.78
2018-04-22T10:24:32.145Z,42.49
2018-04-22T10:25:32.099Z,42.68
2018-04-22T10:26:32.062Z,43.27
2018-04-22T10:27:32.662Z,42.10
2018-04-22T10:28:31.988Z,41.35
2018-04-22T10:29:31.951Z,41.45
2018-04-22T10:30:31.914Z,41.74
2018-04-22T10:31:32.665Z,41.83
2018-04-22T10:32:33.664Z,41.27
2018-04-22T10:33:31.800Z,40.23
2018-04-22T10:34:31.765Z,39.84
2018-04-22T10:35:31.724Z,40.01
2018-04-22T10:36:31.689Z,41.06
2018-04-22T10:37:32.671Z,40.79
2018-04-22T10:38:32.239Z,41.17
2018-04-22T10:39:31.575Z,40.01
2018-04-22T10:40:31.540Z,40.59
2018-04-22T10:41:32.168Z,39.65
2018-04-22T10:42:31.467Z,38.89
2018-04-22T10:43:31.433Z,38.12
2018-04-22T10:44:31.407Z,37.65
2018-04-22T10:45:31.355Z,36.69
2018-04-22T10:46:31.320Z,36.32
2018-04-22T10:47:31.280Z,37.37
2018-04-22T10:48:31.251Z,38.12
2018-04-22T10:49:31.207Z,38.48
2018-04-22T10:50:31.169Z,39.55
2018-04-22T10:51:31.132Z,38.68
2018-04-22T10:52:31.099Z,38.29
2018-04-22T10:53:31.060Z,38.46
2018-04-22T10:54:31.026Z,38.46
2018-04-22T10:55:30.987Z,39.24
2018-04-22T10:56:31.684Z,38.07
2018-04-22T10:57:30.914Z,38.07
2018-04-22T10:58:30.877Z,38.09
2018-04-22T10:59:30.843Z,37.51
2018-04-22T11:00:30.803Z,38.48
2018-04-22T11:01:31.675Z,38.68
2018-04-22T11:02:30.730Z,38.29
2018-04-22T11:03:30.692Z,38.40
2018-04-22T11:04:30.659Z,38.00
2018-04-22T11:05:30.626Z,37.43
2018-04-22T11:06:30.587Z,37.81
2018-04-22T11:07:30.549Z,38.60
2018-04-22T11:08:30.510Z,38.39
2018-04-22T11:09:30.480Z,38.29
2018-04-22T11:10:30.436Z,38.68
2018-04-22T11:11:30.399Z,37.05
2018-04-22T11:12:30.364Z,35.69
2018-04-22T11:13:30.330Z,35.41
2018-04-22T11:14:30.291Z,36.56
2018-04-22T11:15:31.180Z,37.26
2018-04-22T11:16:30.220Z,35.80
2018-04-22T11:17:30.184Z,34.95
2018-04-22T11:18:30.146Z,34.67
2018-04-22T11:19:30.109Z,34.03
2018-04-22T11:20:30.074Z,33.64
2018-04-22T11:21:30.037Z,34.88
2018-04-22T11:22:29.998Z,34.67
2018-04-22T11:23:29.964Z,35.05
2018-04-22T11:24:29.929Z,36.19
2018-04-22T11:25:29.893Z,36.19
2018-04-22T11:26:29.854Z,35.13
2018-04-22T11:27:29.819Z,32.68
2018-04-22T11:28:29.786Z,33.94
2018-04-22T11:29:29.747Z,33.75
2018-04-22T11:30:29.709Z,33.84
2018-04-22T11:31:29.675Z,34.43
2018-04-22T11:32:29.638Z,34.62
2018-04-22T11:33:29.601Z,35.01
2018-04-22T11:34:29.565Z,33.75
2018-04-22T11:35:29.528Z,33.83
2018-04-22T11:36:29.492Z,33.83
2018-04-22T11:37:29.457Z,34.61
2018-04-22T11:38:29.427Z,34.51
2018-04-22T11:39:30.193Z,34.89
2018-04-22T11:40:29.350Z,35.09
2018-04-22T11:41:29.311Z,31.81
2018-04-22T11:42:29.277Z,29.87
2018-04-22T11:43:30.193Z,27.45
2018-04-22T11:44:30.188Z,27.17
2018-04-22T11:45:29.164Z,26.00
2018-04-22T11:46:29.140Z,26.00
2018-04-22T11:47:29.092Z,26.49
2018-04-22T11:48:29.054Z,27.75
2018-04-22T11:49:29.019Z,27.54
2018-04-22T11:50:28.981Z,27.83
2018-04-22T11:51:29.028Z,28.50
2018-04-22T11:52:29.705Z,28.70
2018-04-22T11:53:30.210Z,29.77
2018-04-22T11:54:28.837Z,30.45
2018-04-22T11:55:28.799Z,30.74
2018-04-22T11:56:28.763Z,29.98
2018-04-22T11:57:28.727Z,29.79
2018-04-22T11:58:28.690Z,28.63
2018-04-22T11:59:29.195Z,28.23
2018-04-22T12:00:28.620Z,28.33
2018-04-22T12:01:28.581Z,27.66
2018-04-22T12:02:28.547Z,27.56
2018-04-22T12:03:28.507Z,27.47
2018-04-22T12:04:28.473Z,28.64
2018-04-22T12:05:28.437Z,28.26
2018-04-22T12:06:28.445Z,27.67
2018-04-22T12:07:29.202Z,28.34
2018-04-22T12:08:28.323Z,28.25
2018-04-22T12:09:28.291Z,28.14
2018-04-22T12:10:29.201Z,27.56
2018-04-22T12:11:29.198Z,29.02
2018-04-22T12:12:28.181Z,27.84
2018-04-22T12:13:28.700Z,27.47
2018-04-22T12:14:28.107Z,27.47
2018-04-22T12:15:28.702Z,27.57
2018-04-22T12:16:28.035Z,27.56
2018-04-22T12:17:28.002Z,27.66
2018-04-22T12:18:27.963Z,28.43
2018-04-22T12:19:27.928Z,28.14
2018-04-22T12:20:27.915Z,28.23
2018-04-22T12:21:27.854Z,28.72
2018-04-22T12:22:27.823Z,29.01
2018-04-22T12:23:27.781Z,29.32
2018-04-22T12:24:27.745Z,28.63
2018-04-22T12:25:27.710Z,29.60
2018-04-22T12:26:27.672Z,29.88
2018-04-22T12:27:27.634Z,29.88
2018-04-22T12:28:27.599Z,29.69
2018-04-22T12:29:28.222Z,29.87
2018-04-22T12:30:28.205Z,30.45
2018-04-22T12:31:27.489Z,30.55
2018-04-22T12:32:28.208Z,30.47
2018-04-22T12:33:28.207Z,30.08
2018-04-22T12:34:27.379Z,30.37
2018-04-22T12:35:27.343Z,30.58
2018-04-22T12:36:28.212Z,29.71
2018-04-22T12:37:27.288Z,29.90
2018-04-22T12:38:27.236Z,30.09
2018-04-22T12:39:27.197Z,30.29
2018-04-22T12:40:27.160Z,30.09
2018-04-22T12:41:27.129Z,30.50
2018-04-22T12:42:27.091Z,29.72
2018-04-22T12:43:27.055Z,28.76
2018-04-22T12:44:27.018Z,28.47
2018-04-22T12:45:26.985Z,28.49
2018-04-22T12:46:26.942Z,28.68
2018-04-22T12:47:26.907Z,28.49
2018-04-22T12:48:26.872Z,27.61
2018-04-22T12:49:26.837Z,28.00
2018-04-22T12:50:26.800Z,27.89
2018-04-22T12:51:27.717Z,27.68
2018-04-22T12:52:27.713Z,28.65